createdAt,value
2019-01-20T00:00:57.176Z,-0.40
2019-01-20T00:03:24.254Z,-0.40
2019-01-20T00:05:51.340Z,-0.40
2019-01-20T00:08:19.538Z,-0.40
2019-01-20T00:10:46.703Z,-0.30
2019-01-20T00:13:13.898Z,-0.20
2019-01-20T00:15:41.915Z,-0.30
2019-01-20T00:18:09.088Z,0.00
2019-01-20T00:20:36.658Z,0.00
2019-01-20T00:23:03.804Z,0.00
2019-01-20T00:25:33.243Z,-0.10
2019-01-20T00:28:00.577Z,-0.20
2019-01-20T00:30:27.742Z,-0.20
2019-01-20T00:32:55.122Z,-0.30
2019-01-20T00:35:22.131Z,-0.40
2019-01-20T00:37:49.825Z,-0.40
2019-01-20T00:40:17.042Z,-0.40
2019-01-20T00:42:44.267Z,-0.40
2019-01-20T00:45:13.523Z,-0.50
2019-01-20T00:47:40.541Z,-0.40
2019-01-20T00:50:09.662Z,-0.50
2019-01-20T00:52:36.843Z,-0.50
2019-01-20T00:55:05.451Z,-0.60
2019-01-20T00:57:32.622Z,-0.60
2019-01-20T00:59:59.842Z,-0.60
2019-01-20T01:02:27.101Z,-0.60
2019-01-20T01:04:54.465Z,-0.60
2019-01-20T01:07:21.799Z,-0.70
2019-01-20T01:09:48.875Z,-0.70
2019-01-20T01:12:17.406Z,-0.70
2019-01-20T01:14:44.626Z,-0.80
2019-01-20T01:17:12.171Z,-0.70
2019-01-20T01:19:39.355Z,-0.80
2019-01-20T01:22:06.623Z,-0.80
2019-01-20T01:24:33.707Z,-0.80
2019-01-20T01:27:00.658Z,-0.80
2019-01-20T01:29:28.327Z,-0.80
2019-01-20T01:31:55.468Z,-0.90
2019-01-20T01:34:22.859Z,-0.90
2019-01-20T01:36:49.822Z,-0.90
2019-01-20T01:39:17.039Z,-0.90
2019-01-20T01:41:44.100Z,-0.90
2019-01-20T01:44:11.460Z,-0.90
2019-01-20T01:46:38.465Z,-0.90
2019-01-20T01:49:05.771Z,-0.90
2019-01-20T01:51:32.893Z,-0.90
2019-01-20T01:54:00.027Z,-0.90
2019-01-20T01:56:27.072Z,-0.90
2019-01-20T01:58:55.255Z,-1.00
2019-01-20T02:01:22.346Z,-1.00
2019-01-20T02:03:49.338Z,-1.00
2019-01-20T02:06:16.679Z,-1.00
2019-01-20T02:08:43.806Z,-1.00
2019-01-20T02:11:11.040Z,-1.00
2019-01-20T02:13:38.779Z,-1.00
2019-01-20T02:16:06.010Z,-1.00
2019-01-20T02:18:33.156Z,-1.00
2019-01-20T02:21:00.875Z,-1.00
2019-01-20T02:23:27.897Z,-1.00
2019-01-20T02:25:54.948Z,-1.00
2019-01-20T02:28:21.926Z,-1.00
2019-01-20T02:30:49.014Z,-1.00
2019-01-20T02:33:16.391Z,-1.00
2019-01-20T02:35:43.385Z,-1.00
2019-01-20T02:38:10.412Z,-0.90
2019-01-20T02:40:37.396Z,-1.00
2019-01-20T02:43:17.519Z,-1.00
2019-01-20T02:45:44.844Z,-1.00
2019-01-20T02:48:11.894Z,-1.00
2019-01-20T02:50:39.094Z,-1.10
2019-01-20T02:53:06.467Z,-1.00
2019-01-20T02:55:33.558Z,-1.10
2019-01-20T02:58:02.019Z,-1.10
2019-01-20T03:00:29.390Z,-1.10
2019-01-20T03:02:57.373Z,-1.10
2019-01-20T03:05:24.633Z,-1.10
2019-01-20T03:07:51.595Z,-1.10
2019-01-20T03:10:18.742Z,-1.10
2019-01-20T03:12:46.024Z,-1.20
2019-01-20T03:15:13.568Z,-1.20
2019-01-20T03:17:40.623Z,-1.20
2019-01-20T03:20:10.956Z,-1.20
2019-01-20T03:22:39.074Z,-1.20
2019-01-20T03:25:08.442Z,-1.20
2019-01-20T03:27:35.435Z,-1.20
2019-01-20T03:30:04.256Z,-1.20
2019-01-20T03:32:32.268Z,-1.30
2019-01-20T03:34:59.427Z,-1.30
2019-01-20T03:37:26.756Z,-1.30
2019-01-20T03:39:53.922Z,-1.30
2019-01-20T03:42:21.352Z,-1.30
2019-01-20T03:44:48.329Z,-1.30
2019-01-20T03:47:15.643Z,-1.30
2019-01-20T03:49:43.355Z,-1.30
2019-01-20T03:52:10.427Z,-1.30
2019-01-20T03:54:37.501Z,-1.40
2019-01-20T03:57:23.546Z,-1.40
2019-01-20T03:59:50.716Z,-1.40
2019-01-20T04:02:19.728Z,-1.40
2019-01-20T04:04:46.818Z,-1.30
2019-01-20T04:07:14.035Z,-1.40
2019-01-20T04:09:41.386Z,-1.40
2019-01-20T04:12:08.646Z,-1.40
2019-01-20T04:14:35.711Z,-1.40
2019-01-20T04:17:02.920Z,-1.40
2019-01-20T04:19:30.132Z,-1.30
2019-01-20T04:21:57.143Z,-1.40
2019-01-20T04:24:24.391Z,-1.30
2019-01-20T04:26:51.379Z,-1.40
2019-01-20T04:29:19.113Z,-1.30
2019-01-20T04:31:46.294Z,-1.30
2019-01-20T04:34:13.294Z,-1.30
2019-01-20T04:36:40.382Z,-1.30
2019-01-20T04:39:07.360Z,-1.30
2019-01-20T04:41:34.927Z,-1.30
2019-01-20T04:44:01.896Z,-1.30
2019-01-20T04:46:28.955Z,-1.40
2019-01-20T04:48:56.061Z,-1.30
2019-01-20T04:51:23.050Z,-1.30
2019-01-20T04:53:50.475Z,-1.30
2019-01-20T04:56:17.881Z,-1.10
2019-01-20T04:58:44.892Z,-1.20
2019-01-20T05:01:12.331Z,-1.20
2019-01-20T05:03:39.423Z,-1.30
2019-01-20T05:06:06.597Z,-1.30
2019-01-20T05:08:33.713Z,-1.30
2019-01-20T05:11:00.693Z,-1.30
2019-01-20T05:13:27.763Z,-1.30
2019-01-20T05:15:54.862Z,-1.30
2019-01-20T05:18:21.983Z,-1.40
2019-01-20T05:20:49.165Z,-1.40
2019-01-20T05:23:16.170Z,-1.40
2019-01-20T05:25:43.415Z,-1.50
2019-01-20T05:28:10.491Z,-1.50
2019-01-20T05:30:38.490Z,-1.50
2019-01-20T05:33:05.930Z,-1.50
2019-01-20T05:35:33.295Z,-1.50
2019-01-20T05:38:00.339Z,-1.50
2019-01-20T05:40:28.186Z,-1.50
2019-01-20T05:42:55.440Z,-1.50
2019-01-20T05:45:25.038Z,-1.60
2019-01-20T05:47:52.555Z,-1.50
2019-01-20T05:50:19.872Z,-1.60
2019-01-20T05:52:46.825Z,-1.60
2019-01-20T05:55:14.701Z,-1.60
2019-01-20T05:57:42.083Z,-1.70
2019-01-20T06:00:17.573Z,-1.60
2019-01-20T06:02:44.742Z,-1.70
2019-01-20T06:05:12.290Z,-1.70
2019-01-20T06:07:39.389Z,-1.70
2019-01-20T06:10:08.323Z,-1.70
2019-01-20T06:12:35.878Z,-1.80
2019-01-20T06:15:03.972Z,-1.70
2019-01-20T06:17:31.004Z,-1.80
2019-01-20T06:19:58.193Z,-1.80
2019-01-20T06:22:25.536Z,-1.80
2019-01-20T06:24:52.667Z,-1.70
2019-01-20T06:27:20.011Z,-1.70
2019-01-20T06:29:46.994Z,-1.80
2019-01-20T06:32:13.990Z,-1.60
2019-01-20T06:34:41.068Z,-1.70
2019-01-20T06:37:08.045Z,-1.80
2019-01-20T06:39:37.387Z,-1.90
2019-01-20T06:42:04.407Z,-1.90
2019-01-20T06:44:31.366Z,-2.00
2019-01-20T06:46:58.471Z,-2.10
2019-01-20T06:49:25.801Z,-2.00
2019-01-20T06:51:52.779Z,-2.10
2019-01-20T06:54:19.890Z,-2.10
2019-01-20T06:56:47.249Z,-2.10
2019-01-20T06:59:14.570Z,-2.10
2019-01-20T07:01:41.729Z,-2.10
2019-01-20T07:04:08.780Z,-2.10
2019-01-20T07:06:35.775Z,-2.20
2019-01-20T07:09:05.939Z,-2.20
2019-01-20T07:11:32.936Z,-2.20
2019-01-20T07:14:00.443Z,-2.20
2019-01-20T07:16:27.443Z,-2.30
2019-01-20T07:18:56.384Z,-2.30
2019-01-20T07:21:23.359Z,-2.30
2019-01-20T07:23:50.832Z,-2.30
2019-01-20T07:26:17.798Z,-2.30
2019-01-20T07:28:44.787Z,-2.30
2019-01-20T07:31:11.820Z,-2.30
2019-01-20T07:33:38.895Z,-2.30
2019-01-20T07:36:06.029Z,-2.30
2019-01-20T07:38:33.137Z,-2.20
2019-01-20T07:41:00.500Z,-2.10
2019-01-20T07:43:27.494Z,-2.10
2019-01-20T07:45:54.669Z,-2.10
2019-01-20T07:48:22.644Z,-2.10
2019-01-20T07:50:49.697Z,-2.10
2019-01-20T07:53:16.803Z,-2.10
2019-01-20T07:55:43.890Z,-2.00
2019-01-20T07:58:11.054Z,-1.90
2019-01-20T08:00:38.190Z,-1.90
2019-01-20T08:03:05.246Z,-1.90
2019-01-20T08:05:32.453Z,-1.80
2019-01-20T08:07:59.959Z,-1.80
2019-01-20T08:10:28.700Z,-1.80
2019-01-20T08:12:56.004Z,-1.80
2019-01-20T08:15:23.755Z,-1.80
2019-01-20T08:17:51.110Z,-1.70
2019-01-20T08:20:18.742Z,-1.70
2019-01-20T08:22:46.064Z,-1.70
2019-01-20T08:25:14.927Z,-1.70
2019-01-20T08:27:42.686Z,-1.70
2019-01-20T08:30:13.416Z,-1.70
2019-01-20T08:32:40.455Z,-1.70
2019-01-20T08:35:08.525Z,-1.70
2019-01-20T08:37:35.720Z,-1.60
2019-01-20T08:40:04.568Z,-1.60
2019-01-20T08:42:32.052Z,-1.50
2019-01-20T08:44:59.075Z,-1.50
2019-01-20T08:47:42.293Z,-1.50
2019-01-20T08:50:12.833Z,-1.40
2019-01-20T08:52:39.920Z,-1.40
2019-01-20T08:55:07.965Z,-1.30
2019-01-20T08:57:35.134Z,-1.40
2019-01-20T09:00:03.720Z,-1.30
2019-01-20T09:02:30.772Z,-1.30
2019-01-20T09:04:57.882Z,-1.40
2019-01-20T09:07:25.074Z,-1.30
2019-01-20T09:09:52.363Z,-1.20
2019-01-20T09:12:19.649Z,-1.10
2019-01-20T09:14:47.137Z,-1.10
2019-01-20T09:17:14.223Z,-1.10
2019-01-20T09:19:41.361Z,-1.10
2019-01-20T09:22:09.287Z,-1.00
2019-01-20T09:24:36.287Z,-0.90
2019-01-20T09:27:03.339Z,-0.90
2019-01-20T09:29:30.654Z,-0.80
2019-01-20T09:31:57.845Z,-0.80
2019-01-20T09:34:25.246Z,-0.80
2019-01-20T09:36:52.392Z,-0.70
2019-01-20T09:39:20.080Z,-0.50
2019-01-20T09:41:47.433Z,-0.50
2019-01-20T09:44:14.773Z,-0.60
2019-01-20T09:46:42.237Z,-0.60
2019-01-20T09:49:09.689Z,-0.60
2019-01-20T09:51:36.826Z,-0.70
2019-01-20T09:54:04.314Z,-0.60
2019-01-20T09:56:35.734Z,-0.60
2019-01-20T09:59:05.355Z,-0.70
2019-01-20T10:01:32.629Z,-0.70
2019-01-20T10:04:00.125Z,-0.50
2019-01-20T10:06:27.215Z,-0.60
2019-01-20T10:08:54.288Z,-0.60
2019-01-20T10:11:22.874Z,-0.60
2019-01-20T10:13:54.750Z,-0.70
2019-01-20T10:16:19.014Z,-0.50
2019-01-20T10:18:46.070Z,-0.50
2019-01-20T10:21:13.424Z,-0.60
2019-01-20T10:23:40.524Z,-0.60
2019-01-20T10:26:07.696Z,-0.60
2019-01-20T10:28:35.141Z,-0.60
2019-01-20T10:31:02.132Z,-0.70
2019-01-20T10:33:29.595Z,-0.50
2019-01-20T10:36:06.195Z,-0.60
2019-01-20T10:38:37.295Z,-0.60
2019-01-20T10:41:03.420Z,-0.60
2019-01-20T10:43:30.608Z,-0.50
2019-01-20T10:45:57.791Z,-0.50
2019-01-20T10:48:25.123Z,-0.50
2019-01-20T10:50:52.146Z,-0.50
2019-01-20T10:53:19.415Z,-0.40
2019-01-20T10:55:46.525Z,-0.40
2019-01-20T10:58:14.387Z,-0.40
2019-01-20T11:00:41.952Z,-0.30
2019-01-20T11:03:09.273Z,-0.30
2019-01-20T11:05:36.470Z,-0.40
2019-01-20T11:08:03.897Z,-0.40
2019-01-20T11:10:31.166Z,-0.40
2019-01-20T11:12:58.944Z,-0.40
2019-01-20T11:15:26.674Z,-0.30
2019-01-20T11:17:53.762Z,-0.30
2019-01-20T11:20:21.114Z,-0.20
2019-01-20T11:22:48.215Z,0.00
2019-01-20T11:25:18.567Z,0.10
2019-01-20T11:27:45.626Z,0.40
2019-01-20T11:30:13.548Z,0.50
2019-01-20T11:32:42.434Z,0.50
2019-01-20T11:35:11.981Z,0.50
2019-01-20T11:37:39.614Z,0.40
2019-01-20T11:40:08.805Z,0.20
2019-01-20T11:42:35.788Z,0.30
2019-01-20T11:45:04.617Z,0.40
2019-01-20T11:47:31.819Z,0.40
2019-01-20T11:49:58.778Z,0.50
2019-01-20T11:52:25.764Z,0.70
2019-01-20T11:54:53.174Z,0.60
2019-01-20T11:57:20.355Z,0.60
2019-01-20T11:59:47.446Z,0.60
2019-01-20T12:02:14.456Z,0.40
2019-01-20T12:04:41.451Z,0.40
2019-01-20T12:07:08.415Z,0.60
2019-01-20T12:09:35.475Z,0.60
2019-01-20T12:12:02.533Z,0.50
2019-01-20T12:14:29.844Z,0.60
2019-01-20T12:16:57.141Z,0.30
2019-01-20T12:19:24.154Z,0.40
2019-01-20T12:21:51.236Z,0.40
2019-01-20T12:24:19.466Z,0.40
2019-01-20T12:26:46.847Z,0.40
2019-01-20T12:29:14.315Z,0.60
2019-01-20T12:31:41.729Z,0.70
2019-01-20T12:34:09.331Z,0.70
2019-01-20T12:36:36.483Z,0.40
2019-01-20T12:39:07.586Z,0.40
2019-01-20T12:41:35.391Z,0.40
2019-01-20T12:44:02.938Z,0.40
2019-01-20T12:46:29.954Z,0.60
2019-01-20T12:48:57.117Z,0.70
2019-01-20T12:51:28.459Z,0.70
2019-01-20T12:53:53.458Z,0.60
2019-01-20T12:56:20.931Z,0.60
2019-01-20T12:58:48.125Z,0.80
2019-01-20T13:01:15.622Z,1.00
2019-01-20T13:03:43.536Z,0.90
2019-01-20T13:06:10.855Z,0.90
2019-01-20T13:08:38.103Z,0.90
2019-01-20T13:11:05.396Z,0.90
2019-01-20T13:13:32.767Z,0.80
2019-01-20T13:16:00.271Z,0.60
2019-01-20T13:18:27.260Z,0.60
2019-01-20T13:20:54.603Z,0.50
2019-01-20T13:23:21.944Z,0.40
2019-01-20T13:25:49.750Z,0.50
2019-01-20T13:28:18.282Z,0.40
2019-01-20T13:30:45.744Z,0.50
2019-01-20T13:33:12.780Z,0.40
2019-01-20T13:35:40.094Z,0.30
2019-01-20T13:38:10.305Z,0.30
2019-01-20T13:40:58.913Z,0.30
2019-01-20T13:43:26.978Z,0.30
2019-01-20T13:45:54.388Z,0.30
2019-01-20T13:48:21.443Z,0.10
2019-01-20T13:50:48.478Z,0.10
2019-01-20T13:53:15.640Z,0.00
2019-01-20T13:55:42.695Z,0.00
2019-01-20T13:58:09.711Z,0.20
2019-01-20T14:00:36.935Z,0.20
2019-01-20T14:03:04.155Z,0.10
2019-01-20T14:05:31.738Z,0.10
2019-01-20T14:07:58.827Z,-0.10
2019-01-20T14:10:26.385Z,0.00
2019-01-20T14:12:53.893Z,0.00
2019-01-20T14:15:20.994Z,0.10
2019-01-20T14:17:48.112Z,-0.10
2019-01-20T14:20:17.271Z,0.10
2019-01-20T14:22:45.815Z,-0.10
2019-01-20T14:25:14.963Z,-0.10
2019-01-20T14:27:42.123Z,-0.20
2019-01-20T14:30:14.037Z,-0.20
2019-01-20T14:32:41.555Z,-0.50
2019-01-20T14:35:09.150Z,-0.70
2019-01-20T14:37:36.226Z,-0.70
2019-01-20T14:40:04.574Z,-0.70
2019-01-20T14:42:31.934Z,-0.60
2019-01-20T14:45:01.187Z,-0.50
2019-01-20T14:47:28.122Z,-0.50
2019-01-20T14:49:55.357Z,-0.50
2019-01-20T14:52:22.412Z,-0.50
2019-01-20T14:54:49.667Z,-0.50
2019-01-20T14:57:16.730Z,-0.40
2019-01-20T14:59:43.718Z,-0.50
2019-01-20T15:02:10.751Z,-0.30
2019-01-20T15:04:37.770Z,-0.40
2019-01-20T15:07:04.861Z,-0.60
2019-01-20T15:09:31.871Z,-0.90
2019-01-20T15:11:59.201Z,-1.00
2019-01-20T15:14:26.518Z,-1.10
2019-01-20T15:16:53.748Z,-1.20
2019-01-20T15:19:21.855Z,-1.20
2019-01-20T15:21:49.058Z,-1.30
2019-01-20T15:24:16.289Z,-1.30
2019-01-20T15:26:43.846Z,-1.40
2019-01-20T15:29:10.855Z,-1.40
2019-01-20T15:31:38.465Z,-1.40
2019-01-20T15:34:05.934Z,-1.30
2019-01-20T15:36:33.867Z,-1.30
2019-01-20T15:39:01.006Z,-1.40
2019-01-20T15:41:28.839Z,-1.40
2019-01-20T15:43:55.916Z,-1.30
2019-01-20T15:46:23.347Z,-1.40
2019-01-20T15:48:50.722Z,-1.30
2019-01-20T15:51:17.733Z,-1.30
2019-01-20T15:53:47.374Z,-1.50
2019-01-20T15:56:14.404Z,-1.50
2019-01-20T15:58:42.809Z,-1.30
2019-01-20T16:01:10.915Z,-1.20
2019-01-20T16:03:37.912Z,-1.30
2019-01-20T16:06:05.044Z,-1.10
2019-01-20T16:08:32.092Z,-1.20
2019-01-20T16:10:59.113Z,-1.30
2019-01-20T16:13:26.323Z,-1.30
2019-01-20T16:15:53.528Z,-1.30
2019-01-20T16:18:20.523Z,-1.30
2019-01-20T16:20:47.564Z,-1.30
2019-01-20T16:23:14.883Z,-1.30
2019-01-20T16:25:42.179Z,-1.20
2019-01-20T16:28:10.232Z,-0.90
2019-01-20T16:30:38.560Z,-1.10
2019-01-20T16:33:06.198Z,-1.30
2019-01-20T16:35:33.416Z,-1.50
2019-01-20T16:38:01.362Z,-1.60
2019-01-20T16:40:28.587Z,-1.70
2019-01-20T16:42:55.735Z,-1.70
2019-01-20T16:45:32.003Z,-1.80
2019-01-20T16:47:55.030Z,-1.70
2019-01-20T16:50:22.910Z,-1.80
2019-01-20T16:52:54.574Z,-1.80
2019-01-20T16:55:19.242Z,-1.90
2019-01-20T16:57:46.238Z,-2.00
2019-01-20T17:00:16.724Z,-2.00
2019-01-20T17:02:43.830Z,-2.00
2019-01-20T17:05:11.082Z,-2.00
2019-01-20T17:07:38.312Z,-2.00
2019-01-20T17:10:12.230Z,-2.00
2019-01-20T17:12:40.636Z,-2.10
2019-01-20T17:15:09.910Z,-2.10
2019-01-20T17:17:36.942Z,-2.10
2019-01-20T17:20:05.195Z,-2.10
2019-01-20T17:22:33.218Z,-2.10
2019-01-20T17:25:00.306Z,-2.10
2019-01-20T17:27:27.615Z,-2.20
2019-01-20T17:29:54.715Z,-2.20
2019-01-20T17:32:22.027Z,-2.20
2019-01-20T17:34:49.136Z,-2.20
2019-01-20T17:37:16.267Z,-2.00
2019-01-20T17:39:43.376Z,-2.10
2019-01-20T17:42:10.418Z,-2.10
2019-01-20T17:44:38.088Z,-2.10
2019-01-20T17:47:05.207Z,-2.20
2019-01-20T17:49:32.170Z,-2.10
2019-01-20T17:51:59.221Z,-2.20
2019-01-20T17:54:26.630Z,-2.20
2019-01-20T17:56:54.412Z,-2.30
2019-01-20T17:59:21.424Z,-2.40
2019-01-20T18:01:48.853Z,-2.40
2019-01-20T18:04:15.996Z,-2.40
2019-01-20T18:06:43.185Z,-2.30
2019-01-20T18:09:10.454Z,-2.40
2019-01-20T18:11:37.542Z,-2.50
2019-01-20T18:14:04.728Z,-2.50
2019-01-20T18:16:31.779Z,-2.50
2019-01-20T18:18:58.831Z,-2.40
2019-01-20T18:21:27.070Z,-2.50
2019-01-20T18:23:54.432Z,-2.40
2019-01-20T18:26:21.437Z,-2.40
2019-01-20T18:28:48.829Z,-2.40
2019-01-20T18:31:16.087Z,-2.50
2019-01-20T18:33:43.083Z,-2.50
2019-01-20T18:36:10.398Z,-2.50
2019-01-20T18:38:38.124Z,-2.40
2019-01-20T18:41:05.318Z,-2.40
2019-01-20T18:43:32.838Z,-2.40
2019-01-20T18:46:01.779Z,-2.50
2019-01-20T18:48:28.958Z,-2.50
2019-01-20T18:50:55.946Z,-2.50
2019-01-20T18:53:23.142Z,-2.40
2019-01-20T18:55:50.488Z,-2.20
2019-01-20T18:58:17.454Z,-2.30
2019-01-20T19:00:47.141Z,-2.40
2019-01-20T19:03:15.081Z,-2.40
2019-01-20T19:05:42.733Z,-2.40
2019-01-20T19:08:10.150Z,-2.50
2019-01-20T19:10:37.456Z,-2.40
2019-01-20T19:13:04.736Z,-2.50
2019-01-20T19:15:32.241Z,-2.40
2019-01-20T19:17:59.752Z,-2.40
2019-01-20T19:20:27.006Z,-2.50
2019-01-20T19:22:55.033Z,-2.50
2019-01-20T19:25:22.328Z,-2.50
2019-01-20T19:27:49.417Z,-2.60
2019-01-20T19:30:19.396Z,-2.70
2019-01-20T19:32:46.551Z,-2.70
2019-01-20T19:35:14.274Z,-2.70
2019-01-20T19:37:41.803Z,-2.70
2019-01-20T19:40:09.833Z,-2.70
2019-01-20T19:42:37.058Z,-2.60
2019-01-20T19:45:05.878Z,-2.60
2019-01-20T19:47:33.058Z,-2.60
2019-01-20T19:50:00.457Z,-2.70
2019-01-20T19:52:27.668Z,-2.70
2019-01-20T19:54:55.064Z,-2.60
2019-01-20T19:57:22.257Z,-2.70
2019-01-20T19:59:49.328Z,-2.70
2019-01-20T20:02:16.574Z,-2.70
2019-01-20T20:04:43.841Z,-2.70
2019-01-20T20:07:11.071Z,-2.70
2019-01-20T20:09:38.187Z,-2.70
2019-01-20T20:12:05.427Z,-2.70
2019-01-20T20:14:33.047Z,-2.70
2019-01-20T20:17:00.604Z,-2.70
2019-01-20T20:19:28.087Z,-2.70
2019-01-20T20:21:55.465Z,-2.60
2019-01-20T20:24:25.441Z,-2.60
2019-01-20T20:26:51.944Z,-2.70
2019-01-20T20:29:19.059Z,-2.70
2019-01-20T20:31:46.301Z,-2.70
2019-01-20T20:34:13.683Z,-2.70
2019-01-20T20:36:41.240Z,-2.80
2019-01-20T20:39:08.620Z,-2.70
2019-01-20T20:41:36.083Z,-2.70
2019-01-20T20:44:03.465Z,-2.70
2019-01-20T20:46:31.244Z,-2.80
2019-01-20T20:48:58.539Z,-2.70
2019-01-20T20:51:25.718Z,-2.80
2019-01-20T20:53:53.178Z,-2.80
2019-01-20T20:56:20.487Z,-2.80
2019-01-20T20:58:47.664Z,-2.80
2019-01-20T21:01:14.982Z,-2.80
2019-01-20T21:03:42.414Z,-2.90
2019-01-20T21:06:09.591Z,-2.90
2019-01-20T21:08:36.744Z,-3.00
2019-01-20T21:11:04.383Z,-3.00
2019-01-20T21:13:32.966Z,-3.00
2019-01-20T21:16:00.328Z,-2.90
2019-01-20T21:18:27.734Z,-3.00
2019-01-20T21:20:55.100Z,-3.00
2019-01-20T21:23:22.242Z,-3.00
2019-01-20T21:25:49.798Z,-2.90
2019-01-20T21:28:17.940Z,-3.00
2019-01-20T21:30:45.200Z,-3.00
2019-01-20T21:33:12.225Z,-3.00
2019-01-20T21:35:39.623Z,-3.00
2019-01-20T21:38:07.152Z,-3.00
2019-01-20T21:40:34.457Z,-2.80
2019-01-20T21:43:01.658Z,-2.80
2019-01-20T21:45:29.136Z,-2.50
2019-01-20T21:47:56.161Z,-2.60
2019-01-20T21:50:28.510Z,-2.70
2019-01-20T21:52:55.914Z,-2.80
2019-01-20T21:55:23.151Z,-2.80
2019-01-20T21:57:51.460Z,-2.90
2019-01-20T22:00:20.679Z,-3.00
2019-01-20T22:02:48.022Z,-3.00
2019-01-20T22:05:15.271Z,-3.00
2019-01-20T22:07:42.739Z,-3.10
2019-01-20T22:10:15.025Z,-3.20
2019-01-20T22:12:42.987Z,-3.20
2019-01-20T22:15:10.565Z,-3.20
2019-01-20T22:17:38.106Z,-3.20
2019-01-20T22:20:07.918Z,-3.20
2019-01-20T22:22:35.039Z,-2.90
2019-01-20T22:25:02.994Z,-3.00
2019-01-20T22:27:30.066Z,-3.00
2019-01-20T22:29:57.173Z,-2.90
2019-01-20T22:32:24.623Z,-3.00
2019-01-20T22:34:51.590Z,-3.00
2019-01-20T22:37:18.658Z,-3.10
2019-01-20T22:39:45.775Z,-3.10
2019-01-20T22:42:13.286Z,-3.00
2019-01-20T22:44:40.605Z,-3.00
2019-01-20T22:47:08.125Z,-3.10
2019-01-20T22:49:35.143Z,-3.10
2019-01-20T22:52:02.397Z,-3.10
2019-01-20T22:54:29.777Z,-3.10
2019-01-20T22:56:56.815Z,-3.10
2019-01-20T22:59:24.183Z,-3.10
2019-01-20T23:01:51.300Z,-3.10
2019-01-20T23:04:19.190Z,-3.10
2019-01-20T23:06:46.362Z,-3.10
2019-01-20T23:09:13.355Z,-3.10
2019-01-20T23:11:40.403Z,-3.10
2019-01-20T23:14:07.803Z,-3.10
2019-01-20T23:16:34.940Z,-3.20
2019-01-20T23:19:02.169Z,-3.20
2019-01-20T23:21:29.406Z,-3.10
2019-01-20T23:23:56.414Z,-3.10
2019-01-20T23:26:24.051Z,-3.10
2019-01-20T23:28:51.484Z,-3.10
2019-01-20T23:31:18.731Z,-3.20
2019-01-20T23:33:46.987Z,-3.20
2019-01-20T23:36:13.964Z,-3.20
2019-01-20T23:38:41.311Z,-3.30
2019-01-20T23:41:08.390Z,-3.20
2019-01-20T23:43:35.639Z,-3.30
2019-01-20T23:46:02.873Z,-3.30
2019-01-20T23:48:30.156Z,-3.30
2019-01-20T23:50:57.174Z,-3.30
2019-01-20T23:53:24.238Z,-3.30
2019-01-20T23:55:51.511Z,-3.20
2019-01-20T23:58:19.010Z,-3.20
